Date,TemperatureHighF,TemperatureAvgF,TemperatureLowF,DewpointHighF,DewpointAvgF,DewpointLowF,HumidityHigh,HumidityAvg,HumidityLow,PressureMaxIn,PressureMinIn,WindSpeedMaxMPH,WindSpeedAvgMPH,GustSpeedMaxMPH,PrecipitationSumIn
2013-1-1,55.1,49.5,44.5,45.9,42.7,38.4,87,77,67,30.16,30.10,12,4,12,0.00
2013-1-2,54.7,50.9,48.6,47.8,46.1,43.5,90,84,70,30.27,30.09,15,8,15,0.34
2013-1-3,58.7,53.6,49.9,48.2,43.1,39.5,77,68,58,30.48,30.27,8,4,8,0.21
2013-1-4,54.6,50.8,47.9,47.5,44.2,40.7,90,79,69,30.47,30.28,7,3,7,0.00
2013-1-5,54.2,49.9,47.4,49.1,45.8,41.8,91,86,68,30.27,30.09,8,3,8,0.01
2013-1-6,58.9,52.9,48.0,48.9,43.6,37.2,89,72,48,30.19,30.10,23,8,23,0.00
2013-1-7,58.7,53.2,49.9,49.3,44.4,35.2,89,73,48,30.24,30.06,8,3,8,0.00
2013-1-8,56.2,51.3,48.4,46.7,41.8,35.0,89,71,58,30.29,30.21,11,3,12,0.00
2013-1-9,55.4,52.5,50.7,49.0,46.8,43.8,85,81,75,30.21,30.14,12,3,12,0.00
2013-1-10,53.7,51.4,48.2,49.1,46.0,42.3,94,82,70,30.14,29.82,14,2,14,0.17
2013-1-11,55.7,51.2,46.7,50.4,46.8,40.1,95,85,66,29.88,29.76,25,8,25,0.13
2013-1-12,54.9,49.8,44.7,47.0,43.8,39.9,88,80,70,30.08,29.82,13,4,13,0.00
2013-1-13,54.9,51.1,47.2,51.7,46.4,39.4,95,84,71,30.06,29.90,24,7,24,1.86
2013-1-14,54.8,52.2,48.6,51.1,48.3,44.9,94,86,82,29.95,29.85,21,8,21,0.33
2013-1-15,52.7,48.2,45.8,48.0,44.7,41.9,92,88,82,29.95,29.68,12,4,12,0.11
2013-1-16,49.5,45.2,40.8,44.2,39.5,35.4,91,81,67,29.68,29.50,26,9,26,0.35
2013-1-17,52.1,46.8,40.9,47.4,43.6,38.3,94,89,73,29.53,29.35,22,7,22,0.82
2013-1-18,45.7,43.7,40.2,40.6,38.9,37.3,92,83,79,29.60,29.32,18,7,18,0.18
2013-1-19,52.4,46.0,42.7,49.5,40.9,33.3,94,83,69,29.69,29.58,31,11,31,0.31
2013-1-20,57.4,55.8,52.3,54.8,53.1,49.2,93,91,87,29.63,29.52,24,11,26,0.51
2013-1-21,55.4,50.7,47.1,53.7,48.2,42.8,94,91,76,29.61,29.39,27,6,27,0.57
2013-1-22,53.6,49.0,45.0,47.9,43.6,37.3,94,82,58,29.84,29.60,26,9,27,0.34
2013-1-23,53.5,48.3,44.3,47.4,44.4,41.0,92,87,77,29.85,29.61,26,8,26,0.73
2013-1-24,47.9,45.6,43.2,45.4,43.2,41.3,94,91,88,29.61,29.39,20,6,20,1.01
2013-1-25,51.3,47.0,44.6,43.8,39.6,35.7,92,76,61,29.60,29.42,25,10,25,0.06
2013-1-26,48.2,45.5,43.2,36.8,34.1,31.3,71,64,60,29.84,29.59,18,8,18,0.00
2013-1-27,50.1,45.2,42.2,38.6,35.1,30.7,76,68,58,30.00,29.83,12,4,12,0.00
2013-1-28,49.7,46.7,45.2,43.3,41.3,38.6,90,82,73,30.00,29.86,20,7,20,0.13
2013-1-29,54.9,49.7,45.1,46.0,41.5,36.5,90,74,58,30.24,29.99,23,6,23,0.00
2013-1-30,55.2,51.2,48.3,50.1,47.4,44.8,92,87,81,30.23,30.17,12,3,12,0.00
2013-1-31,59.5,53.8,50.5,52.9,50.2,48.0,93,87,75,30.22,30.12,13,4,13,0.00